Terminal Aerodrome Forecast
Issued by NWS Dallas/Fort Worth, TX

Home | Current Version | Previous Version | Text Only | Print | Product List | Glossary On
Versions: 1 2 3 4 5 6 7 8 9 10 11 12 13 14 15 16 17 18 19 20 21 22 23 24 25 26 27 28 29 30 31 32
000
FTUS44 KFWD 240900 AAB
TAFACT
TAF AMD
KACT 240902Z 2409/2506 17015KT P6SM SCT018 BKN250
      TEMPO 2409/2410 BKN018
     FM241000 18016KT P6SM BKN015
     FM241700 26011KT P6SM BKN035
     FM242000 32015KT P6SM SCT035
     FM250100 02005KT P6SM SKC=

USA.gov is the U.S. government's official web portal to all federal, state and local government web resources and services.